Arden, Nevada
Current Conditions -  °F | °C
As of 8:56 PM on Wednesday 22 Oct 2014 (Local Time) from KLAS Reporting Station
Broken Clouds Broken Clouds  
Wind Chill: 73°   Ceiling: 25000
Heat Index: 73°   Visibility: 10mi
Dew Point: 31°   Wind: 5mph
Humidity: 21%   Direction: 250°WSW
Pressure: 29.98"   Gusts: NA
Location:  36.079°N, 115.211°W
Report Text: KLAS 230356Z 25004KT 10SM BKN250 23/M01 A2998 RMK AO2 SLP135 T02281006
Loading
Personal Weather Stations






























Interactive Weather Map
Tropical Storm Tracking
New forecast layout! Learn more

10-Day Weather Forecast

Advertisements
Track Severe Weather on mobile